Time;durP1;ratioP1;P1;durP2;ratioP2;P2;SDS_P1;SDS_P2;PMS_P1;PMS_P2;Temp;Humidity;BMP_temperature;BMP_pressure;BME280_temperature;BME280_humidity;BME280_pressure;Samples;Min_cycle;Max_cycle;Signal;HPM_P1;HPM_P2
2021/05/23 00:00:26;;;;;;;5.70;3.20;;;359.20;2329.60;;;;;;5052970;28;20021;-75
2021/05/23 00:02:54;;;;;;;8.57;3.83;;;359.30;2329.60;;;;;;5052552;28;20043;-73
2021/05/23 00:05:23;;;;;;;7.53;3.20;;;359.30;2329.60;;;;;;5052334;28;20029;-70
2021/05/23 00:08:02;;;;;;;6.35;3.28;;;359.20;2329.60;;;;;;5052630;28;20115;-70
2021/05/23 00:10:29;;;;;;;7.32;3.00;;;359.20;2329.60;;;;;;5052732;28;20096;-75
2021/05/23 00:12:57;;;;;;;8.20;3.40;;;359.10;2329.60;;;;;;5052531;28;20378;-72
2021/05/23 00:15:30;;;;;;;7.78;3.30;;;359.10;2329.60;;;;;;5052456;28;20555;-69
2021/05/23 00:17:56;;;;;;;6.30;3.40;;;359.10;2329.60;;;;;;5052592;28;20108;-71
2021/05/23 00:20:24;;;;;;;5.85;3.60;;;359.10;2329.60;;;;;;5052043;28;20540;-72
2021/05/23 00:22:49;;;;;;;7.60;2.90;;;359.20;2329.60;;;;;;5052347;28;20025;-71
2021/05/23 00:25:18;;;;;;;4.72;2.70;;;359.20;2329.60;;;;;;5052240;28;20032;-72
2021/05/23 00:27:45;;;;;;;5.32;2.80;;;359.20;2329.60;;;;;;5052522;28;20129;-75
2021/05/23 00:30:12;;;;;;;4.68;2.80;;;359.20;2329.60;;;;;;5052092;28;20041;-70
2021/05/23 00:32:38;;;;;;;4.25;2.72;;;359.10;2329.60;;;;;;5052565;28;20438;-73
2021/05/23 00:35:04;;;;;;;5.90;2.80;;;359.10;2329.60;;;;;;5051998;28;20025;-75
2021/05/23 00:37:30;;;;;;;6.78;2.60;;;359.10;2329.60;;;;;;5052152;28;20021;-74
2021/05/23 00:39:55;;;;;;;6.05;2.85;;;359.00;2329.60;;;;;;5043813;28;20495;-70
2021/05/23 00:42:21;;;;;;;5.80;3.00;;;358.90;2329.60;;;;;;5041967;28;20492;-70
2021/05/23 00:44:47;;;;;;;5.57;2.80;;;358.90;2329.60;;;;;;5034134;28;20022;-69
2021/05/23 00:47:13;;;;;;;5.32;2.50;;;358.90;2329.60;;;;;;5033119;28;20056;-70
2021/05/23 00:49:38;;;;;;;4.93;2.50;;;358.90;2329.60;;;;;;5034644;28;20148;-69
2021/05/23 00:52:06;;;;;;;4.55;2.53;;;358.90;2329.60;;;;;;5032032;28;20037;-70
2021/05/23 00:54:33;;;;;;;4.35;2.25;;;358.90;2329.60;;;;;;5032768;28;20037;-70
2021/05/23 00:56:59;;;;;;;3.65;2.28;;;358.80;2329.60;;;;;;5031222;28;20025;-69
2021/05/23 00:59:25;;;;;;;4.05;2.22;;;358.80;2329.60;;;;;;5032017;28;20039;-70
2021/05/23 01:01:54;;;;;;;4.45;2.33;;;358.80;2329.60;;;;;;5034944;28;20025;-71
2021/05/23 01:04:20;;;;;;;5.15;2.20;;;358.70;2329.60;;;;;;5035810;28;20025;-70
2021/05/23 01:06:46;;;;;;;4.95;2.20;;;358.70;2329.60;;;;;;5034080;28;20357;-71
2021/05/23 01:09:11;;;;;;;3.67;2.00;;;358.70;2329.60;;;;;;5032693;28;20021;-74
2021/05/23 01:11:40;;;;;;;4.18;2.20;;;358.60;2329.60;;;;;;5038020;28;20029;-71
2021/05/23 01:14:11;;;;;;;5.47;2.30;;;358.60;2329.60;;;;;;5032313;28;20029;-69
2021/05/23 01:16:53;;;;;;;6.90;2.45;;;358.50;2329.60;;;;;;5036027;28;20027;-71
2021/05/23 01:19:48;;;;;;;3.70;2.30;;;358.50;2329.60;;;;;;5038950;28;20032;-70
2021/05/23 01:22:40;;;;;;;4.50;2.40;;;358.50;2329.60;;;;;;5038092;28;20025;-69
2021/05/23 01:25:19;;;;;;;4.78;2.10;;;358.40;2329.60;;;;;;5037292;28;20113;-72
2021/05/23 01:27:48;;;;;;;6.30;2.38;;;358.40;2329.60;;;;;;5035769;28;20029;-69
2021/05/23 01:30:23;;;;;;;3.97;2.30;;;333.70;2329.60;;;;;;5035597;28;20057;-72
2021/05/23 01:32:49;;;;;;;4.70;2.60;;;333.70;2329.60;;;;;;5034732;28;20032;-69
2021/05/23 01:35:25;;;;;;;4.43;2.20;;;333.70;2329.60;;;;;;5021169;28;20029;-66
2021/05/23 01:37:59;;;;;;;4.32;2.35;;;333.70;2329.60;;;;;;5037067;28;20079;-71
2021/05/23 01:40:25;;;;;;;4.68;2.30;;;333.60;2329.60;;;;;;5039393;28;20060;-70
2021/05/23 01:42:51;;;;;;;3.33;2.00;;;333.50;2329.60;;;;;;5055256;28;20579;-70
2021/05/23 01:45:17;;;;;;;4.15;2.30;;;333.50;2329.60;;;;;;5055350;28;20117;-70
2021/05/23 01:47:45;;;;;;;3.97;2.40;;;333.40;2329.60;;;;;;5055225;28;20032;-71
2021/05/23 01:50:10;;;;;;;3.95;2.30;;;333.40;2329.60;;;;;;5037383;28;20040;-70
2021/05/23 01:52:45;;;;;;;5.57;2.35;;;333.30;2329.60;;;;;;5054998;28;20041;-70
2021/05/23 01:55:11;;;;;;;4.30;2.45;;;333.30;2329.60;;;;;;5055243;28;20037;-70
2021/05/23 01:57:37;;;;;;;4.43;2.35;;;333.30;2329.60;;;;;;5055056;28;20029;-70
2021/05/23 02:00:03;;;;;;;4.00;2.30;;;333.20;2329.60;;;;;;5055160;28;20028;-70
2021/05/23 02:02:29;;;;;;;3.80;2.20;;;333.20;2329.60;;;;;;5055143;28;20036;-69
2021/05/23 02:04:55;;;;;;;4.25;2.30;;;333.20;2329.60;;;;;;5054672;28;20480;-70
2021/05/23 02:07:20;;;;;;;4.95;2.42;;;333.10;2329.60;;;;;;5055282;28;20502;-69
2021/05/23 02:09:46;;;;;;;4.55;2.20;;;333.10;2329.60;;;;;;5054789;28;20053;-70
2021/05/23 02:12:12;;;;;;;3.95;2.13;;;333.00;2329.60;;;;;;5054793;28;20025;-70
2021/05/23 02:14:38;;;;;;;3.63;2.15;;;333.00;2329.60;;;;;;5053880;28;20079;-71
2021/05/23 02:17:04;;;;;;;4.93;2.25;;;332.90;2329.60;;;;;;5054721;28;20032;-70
2021/05/23 02:19:29;;;;;;;3.15;2.15;;;332.90;2329.60;;;;;;5054715;28;20029;-70
2021/05/23 02:21:55;;;;;;;5.55;2.28;;;332.90;2329.60;;;;;;5054518;28;20100;-70
2021/05/23 02:24:21;;;;;;;3.22;2.08;;;332.80;2329.60;;;;;;5054716;28;20032;-70
2021/05/23 02:26:47;;;;;;;3.22;2.20;;;332.80;2329.60;;;;;;5054269;28;20071;-70
2021/05/23 02:29:13;;;;;;;4.13;2.10;;;332.80;2329.60;;;;;;5054850;28;20027;-70
2021/05/23 02:31:39;;;;;;;4.55;2.30;;;332.80;2329.60;;;;;;5054705;28;20025;-70
2021/05/23 02:34:05;;;;;;;3.35;1.92;;;332.80;2329.60;;;;;;5054674;28;20392;-70
2021/05/23 02:36:31;;;;;;;3.28;2.08;;;332.80;2329.60;;;;;;5054787;28;20031;-70
2021/05/23 02:38:56;;;;;;;4.30;2.10;;;308.10;2304.00;;;;;;5052688;28;20095;-75
2021/05/23 02:41:22;;;;;;;3.90;2.17;;;308.10;2304.00;;;;;;5054977;28;20028;-73
2021/05/23 02:43:48;;;;;;;4.18;1.90;;;308.00;2304.00;;;;;;5054052;28;20381;-70
2021/05/23 02:46:14;;;;;;;4.63;2.20;;;308.00;2304.00;;;;;;5054210;28;20127;-70
2021/05/23 02:48:39;;;;;;;4.22;2.10;;;308.00;2304.00;;;;;;5054298;28;20021;-70
2021/05/23 02:51:06;;;;;;;4.95;2.00;;;307.90;2304.00;;;;;;5054078;28;20102;-70
2021/05/23 02:53:32;;;;;;;4.63;2.20;;;307.80;2304.00;;;;;;5054197;28;20033;-69
2021/05/23 02:55:58;;;;;;;3.20;1.90;;;307.80;2304.00;;;;;;5054036;28;20479;-74
2021/05/23 02:58:24;;;;;;;3.53;2.13;;;307.80;2304.00;;;;;;5054060;28;20125;-76
2021/05/23 03:00:50;;;;;;;4.43;2.60;;;307.80;2304.00;;;;;;5054001;28;20103;-79
2021/05/23 03:03:16;;;;;;;4.85;2.40;;;307.80;2304.00;;;;;;5053803;28;20029;-73
2021/05/23 03:05:43;;;;;;;6.40;2.50;;;307.80;2304.00;;;;;;5054319;28;20421;-70
2021/05/23 03:08:09;;;;;;;4.80;2.35;;;307.80;2304.00;;;;;;5053985;28;20040;-70
2021/05/23 03:10:48;;;;;;;5.00;2.20;;;307.80;2304.00;;;;;;5053659;28;20025;-73
2021/05/23 03:13:14;;;;;;;5.55;2.17;;;307.80;2304.00;;;;;;5045806;28;20391;-76
2021/05/23 03:15:40;;;;;;;3.55;2.00;;;307.80;2304.00;;;;;;5047745;28;20047;-70
2021/05/23 03:18:07;;;;;;;4.57;2.00;;;307.80;2304.00;;;;;;5053656;28;20024;-77
2021/05/23 03:20:34;;;;;;;4.15;1.98;;;307.90;2304.00;;;;;;5053579;28;20024;-70
2021/05/23 03:23:01;;;;;;;3.97;1.95;;;307.80;2304.00;;;;;;5053497;28;20027;-69
2021/05/23 03:25:28;;;;;;;3.35;1.98;;;307.80;2304.00;;;;;;5053644;28;20112;-73
2021/05/23 03:27:54;;;;;;;4.15;1.90;;;307.90;2304.00;;;;;;5053356;28;20032;-73
2021/05/23 03:30:27;;;;;;;4.38;2.00;;;307.90;2304.00;;;;;;5053509;28;20017;-72
2021/05/23 03:32:53;;;;;;;4.32;2.20;;;307.90;2304.00;;;;;;5053258;28;20476;-70
2021/05/23 03:35:19;;;;;;;3.15;1.90;;;307.90;2304.00;;;;;;5053520;28;20029;-70
2021/05/23 03:37:45;;;;;;;3.92;2.00;;;308.00;2304.00;;;;;;5053098;28;20505;-70
2021/05/23 03:40:15;;;;;;;4.45;2.17;;;308.00;2304.00;;;;;;5052924;28;20360;-70
2021/05/23 03:42:41;;;;;;;4.45;1.90;;;308.00;2304.00;;;;;;5053303;28;20040;-70
2021/05/23 03:45:08;;;;;;;5.15;2.10;;;308.00;2304.00;;;;;;5052953;28;20029;-70
2021/05/23 03:47:35;;;;;;;4.88;1.88;;;308.10;2304.00;;;;;;5053072;28;20048;-70
2021/05/23 03:50:01;;;;;;;4.82;2.10;;;308.10;2304.00;;;;;;5034860;28;20387;-70
2021/05/23 03:52:27;;;;;;;3.50;1.92;;;308.00;2304.00;;;;;;5052960;28;20045;-70
2021/05/23 03:54:53;;;;;;;4.55;2.30;;;308.00;2304.00;;;;;;5052415;28;20100;-70
2021/05/23 03:57:19;;;;;;;4.72;2.20;;;308.10;2304.00;;;;;;5053095;28;20045;-71
2021/05/23 03:59:44;;;;;;;3.63;2.35;;;332.80;2329.60;;;;;;5052546;28;20589;-71
2021/05/23 04:02:10;;;;;;;3.60;2.17;;;332.90;2329.60;;;;;;5053066;28;20423;-70
2021/05/23 04:04:46;;;;;;;4.82;2.15;;;333.10;2329.60;;;;;;5052530;28;20407;-70
2021/05/23 04:07:14;;;;;;;4.90;2.10;;;333.20;2329.60;;;;;;5049970;28;20032;-70
2021/05/23 04:09:39;;;;;;;4.70;2.00;;;333.30;2329.60;;;;;;5052423;28;20025;-70
2021/05/23 04:12:07;;;;;;;3.75;2.08;;;333.40;2329.60;;;;;;5052299;28;20099;-70
2021/05/23 04:14:33;;;;;;;3.38;1.83;;;333.50;2329.60;;;;;;5052070;28;20099;-70
2021/05/23 04:16:58;;;;;;;3.42;2.08;;;333.70;2329.60;;;;;;5049911;28;20105;-69
2021/05/23 04:19:24;;;;;;;3.78;2.05;;;358.40;2329.60;;;;;;5052166;28;20557;-70
2021/05/23 04:21:50;;;;;;;4.72;1.92;;;358.50;2329.60;;;;;;5051191;28;20032;-70
2021/05/23 04:24:15;;;;;;;4.07;2.05;;;358.70;2329.60;;;;;;5052093;28;20510;-69
2021/05/23 04:26:41;;;;;;;4.13;2.08;;;358.80;2329.60;;;;;;5052391;28;20032;-69
2021/05/23 04:29:07;;;;;;;4.47;2.10;;;359.00;2329.60;;;;;;5051869;28;20494;-70
2021/05/23 04:31:33;;;;;;;5.25;2.15;;;359.10;2329.60;;;;;;5048894;28;20057;-70
2021/05/23 04:33:58;;;;;;;3.95;2.20;;;359.20;2329.60;;;;;;5051741;28;20029;-69
2021/05/23 04:36:24;;;;;;;4.57;2.13;;;384.00;2329.60;;;;;;5052122;28;20070;-70
2021/05/23 04:38:50;;;;;;;4.18;2.30;;;384.30;2329.60;;;;;;5051999;28;20021;-69
2021/05/23 04:41:16;;;;;;;6.45;2.08;;;384.60;2329.60;;;;;;5052045;28;20021;-70
2021/05/23 04:43:41;;;;;;;6.25;2.35;;;384.80;2329.60;;;;;;5052023;28;20422;-70
2021/05/23 04:46:07;;;;;;;3.38;1.98;;;409.60;2355.20;;;;;;5051934;28;20108;-69
2021/05/23 04:48:33;;;;;;;5.22;2.40;;;409.70;2355.20;;;;;;5052318;28;20104;-71
2021/05/23 04:50:59;;;;;;;7.45;2.70;;;409.90;2355.20;;;;;;5051105;28;20574;-70
2021/05/23 04:53:24;;;;;;;5.28;2.90;;;410.00;2355.20;;;;;;5051939;28;20077;-73
2021/05/23 04:55:50;;;;;;;6.38;2.60;;;410.20;2355.20;;;;;;5052013;28;20025;-70
2021/05/23 04:58:16;;;;;;;4.97;2.50;;;410.20;2355.20;;;;;;5051872;28;20029;-71
2021/05/23 05:00:42;;;;;;;4.63;2.20;;;410.30;2355.20;;;;;;5052013;28;20021;-70
2021/05/23 05:03:08;;;;;;;5.82;2.42;;;410.50;2355.20;;;;;;5051865;28;20032;-70
2021/05/23 05:05:33;;;;;;;6.88;2.65;;;435.20;2355.20;;;;;;5051840;28;20029;-70
2021/05/23 05:07:59;;;;;;;3.72;2.20;;;435.30;2355.20;;;;;;5051916;28;20032;-70
2021/05/23 05:10:25;;;;;;;4.90;2.47;;;435.50;2355.20;;;;;;5051827;28;20024;-70
2021/05/23 05:12:51;;;;;;;5.55;2.80;;;435.50;2355.20;;;;;;5051700;28;20028;-70
2021/05/23 05:15:16;;;;;;;6.18;3.03;;;435.70;2355.20;;;;;;5048505;28;20135;-70
2021/05/23 05:17:42;;;;;;;6.47;3.05;;;435.70;2355.20;;;;;;5051701;28;20131;-71
2021/05/23 05:20:10;;;;;;;4.47;2.65;;;436.00;2355.20;;;;;;5051682;28;20033;-71
2021/05/23 05:22:36;;;;;;;5.72;2.92;;;460.80;2380.80;;;;;;5051605;28;20032;-70
2021/05/23 05:25:04;;;;;;;7.97;3.88;;;461.20;2380.80;;;;;;5051884;28;20116;-71
2021/05/23 05:27:30;;;;;;;8.50;3.58;;;461.50;2380.80;;;;;;5051736;28;20021;-70
2021/05/23 05:29:56;;;;;;;7.07;3.22;;;461.60;2380.80;;;;;;5051943;28;20043;-71
2021/05/23 05:32:22;;;;;;;7.25;3.45;;;461.60;2380.80;;;;;;5051544;28;20535;-70
2021/05/23 05:34:48;;;;;;;13.60;4.90;;;486.50;2380.80;;;;;;5051459;28;20037;-71
2021/05/23 05:37:14;;;;;;;16.52;6.53;;;487.00;2380.80;;;;;;5051517;28;20040;-70
2021/05/23 05:39:39;;;;;;;7.95;3.40;;;487.30;2380.80;;;;;;5051749;28;20049;-71
2021/05/23 05:42:05;;;;;;;11.18;4.93;;;512.50;2380.80;;;;;;5051455;28;20079;-72
2021/05/23 05:44:31;;;;;;;10.60;3.15;;;512.70;2380.80;;;;;;5051470;28;20407;-71
2021/05/23 05:46:56;;;;;;;6.10;2.97;;;537.80;2355.20;;;;;;5051294;28;20021;-69
2021/05/23 05:49:22;;;;;;;8.85;3.38;;;538.30;2278.40;;;;;;5051448;28;20023;-72
2021/05/23 05:51:49;;;;;;;10.82;5.18;;;538.50;2227.20;;;;;;5051323;28;20075;-71
2021/05/23 05:54:15;;;;;;;11.07;5.25;;;538.30;2278.40;;;;;;5051424;28;20091;-70
2021/05/23 05:56:41;;;;;;;6.65;3.47;;;512.80;2252.80;;;;;;5051198;28;20404;-70
2021/05/23 05:59:07;;;;;;;6.47;2.92;;;512.60;2278.40;;;;;;5051412;28;20548;-71
2021/05/23 06:01:32;;;;;;;8.38;3.38;;;512.20;2329.60;;;;;;5051539;28;20029;-71
2021/05/23 06:03:58;;;;;;;5.45;2.60;;;512.30;2380.80;;;;;;5054450;28;20031;-70
2021/05/23 06:06:24;;;;;;;7.63;3.17;;;512.10;2355.20;;;;;;5048732;28;20029;-71
2021/05/23 06:08:50;;;;;;;7.63;3.00;;;487.30;2355.20;;;;;;5055118;28;20047;-70
2021/05/23 06:11:16;;;;;;;6.65;3.00;;;487.30;2380.80;;;;;;5054862;28;20625;-70
2021/05/23 06:13:42;;;;;;;6.43;3.30;;;487.20;2380.80;;;;;;5054582;28;20075;-71
2021/05/23 06:16:07;;;;;;;6.93;3.50;;;487.20;2380.80;;;;;;5051878;28;20040;-70
2021/05/23 06:18:33;;;;;;;6.22;3.00;;;487.30;2380.80;;;;;;5054469;28;20033;-71
2021/05/23 06:20:59;;;;;;;7.63;3.35;;;487.10;2380.80;;;;;;5054570;28;20662;-70
2021/05/23 06:23:25;;;;;;;8.23;3.60;;;487.20;2380.80;;;;;;5054215;28;20036;-71
2021/05/23 06:25:51;;;;;;;7.10;3.47;;;512.20;2380.80;;;;;;5054561;28;20078;-70
2021/05/23 06:28:17;;;;;;;7.88;3.55;;;512.20;2380.80;;;;;;5054850;28;20029;-71
2021/05/23 06:30:42;;;;;;;9.52;4.93;;;512.10;2380.80;;;;;;5054263;28;20040;-71
2021/05/23 06:33:08;;;;;;;9.25;4.18;;;512.30;2380.80;;;;;;5054486;28;20021;-70
2021/05/23 06:35:34;;;;;;;10.10;3.90;;;512.50;2380.80;;;;;;5053800;28;20090;-70
2021/05/23 06:38:00;;;;;;;7.10;4.00;;;512.90;2380.80;;;;;;5054660;28;20360;-71
2021/05/23 06:40:26;;;;;;;11.02;4.60;;;537.80;2329.60;;;;;;5054274;28;20025;-71
2021/05/23 06:42:52;;;;;;;6.93;3.20;;;538.10;2278.40;;;;;;5054430;28;20078;-70
2021/05/23 06:45:17;;;;;;;8.25;3.40;;;537.80;2252.80;;;;;;5054394;28;20491;-70
2021/05/23 06:47:44;;;;;;;6.50;3.05;;;537.90;2227.20;;;;;;5050286;28;20036;-70
2021/05/23 06:50:10;;;;;;;7.38;2.83;;;537.90;2201.60;;;;;;5054225;28;20479;-70
2021/05/23 06:52:36;;;;;;;5.95;2.50;;;538.00;2150.40;;;;;;5054113;28;20049;-70
2021/05/23 06:55:04;;;;;;;8.50;2.70;;;538.30;2124.80;;;;;;5054090;28;20023;-70
2021/05/23 06:57:31;;;;;;;9.75;3.50;;;538.40;2124.80;;;;;;5054057;28;20506;-70
2021/05/23 06:59:56;;;;;;;5.85;3.60;;;538.50;2099.20;;;;;;5053795;28;20025;-74
2021/05/23 07:02:22;;;;;;;8.65;3.08;;;563.30;2124.80;;;;;;5054052;28;20027;-74
2021/05/23 07:04:48;;;;;;;6.40;2.80;;;563.40;2099.20;;;;;;5053577;28;20087;-74
2021/05/23 07:07:14;;;;;;;9.32;3.88;;;563.30;2099.20;;;;;;5054008;28;20079;-69
2021/05/23 07:09:41;;;;;;;8.20;3.28;;;563.40;2048.00;;;;;;5053847;28;20464;-73
2021/05/23 07:12:07;;;;;;;7.88;3.22;;;563.50;2099.20;;;;;;5053626;28;20021;-70
2021/05/23 07:14:33;;;;;;;13.10;3.20;;;563.90;2048.00;;;;;;5052380;28;20029;-71
2021/05/23 07:16:59;;;;;;;7.75;3.05;;;564.10;2048.00;;;;;;5051170;28;20020;-71
2021/05/23 07:19:24;;;;;;;8.32;3.70;;;564.00;2022.40;;;;;;5053678;28;20100;-70
2021/05/23 07:21:50;;;;;;;7.88;3.45;;;564.10;2022.40;;;;;;5053500;28;20025;-70
2021/05/23 07:24:16;;;;;;;4.82;2.50;;;563.90;2022.40;;;;;;5053596;28;20021;-71
2021/05/23 07:26:43;;;;;;;4.60;2.30;;;564.10;1996.80;;;;;;5053552;28;20028;-71
2021/05/23 07:29:09;;;;;;;6.70;3.00;;;588.80;1971.20;;;;;;5053434;28;20072;-70
2021/05/23 07:31:35;;;;;;;4.90;2.15;;;589.20;1996.80;;;;;;5053667;28;20373;-70
2021/05/23 07:34:01;;;;;;;8.40;2.70;;;589.10;1945.60;;;;;;5053624;28;20135;-71
2021/05/23 07:36:27;;;;;;;5.32;2.42;;;589.60;1971.20;;;;;;5053268;28;20475;-70
2021/05/23 07:38:54;;;;;;;7.15;2.50;;;589.30;1920.00;;;;;;5035445;28;20029;-70
2021/05/23 07:41:20;;;;;;;8.77;3.88;;;589.60;1920.00;;;;;;5053330;28;20024;-71
2021/05/23 07:43:46;;;;;;;5.22;2.20;;;614.50;1894.40;;;;;;5053376;28;20032;-70
2021/05/23 07:46:11;;;;;;;4.88;2.30;;;589.40;1894.40;;;;;;5052945;28;20500;-69
2021/05/23 07:48:37;;;;;;;9.10;3.17;;;589.30;1920.00;;;;;;5053170;28;20102;-70
2021/05/23 07:51:03;;;;;;;5.93;2.50;;;589.40;1920.00;;;;;;5052938;28;20040;-70
2021/05/23 07:53:29;;;;;;;7.38;2.50;;;589.50;1920.00;;;;;;5039395;28;20028;-70
2021/05/23 07:55:55;;;;;;;6.88;3.13;;;589.70;1868.80;;;;;;5053292;28;20495;-70
2021/05/23 07:58:22;;;;;;;6.65;2.60;;;589.70;1868.80;;;;;;5052827;28;20467;-71
2021/05/23 08:00:48;;;;;;;4.82;2.40;;;589.50;1843.20;;;;;;5052692;28;20063;-70
2021/05/23 08:03:14;;;;;;;8.32;3.40;;;589.70;1894.40;;;;;;5052787;28;20060;-71
2021/05/23 08:05:40;;;;;;;10.07;3.33;;;614.50;1894.40;;;;;;5052452;28;20080;-71
2021/05/23 08:08:06;;;;;;;9.55;3.13;;;614.40;1817.60;;;;;;5052633;28;20074;-71
2021/05/23 08:10:32;;;;;;;9.90;3.85;;;614.40;1766.40;;;;;;5052165;28;20542;-70
2021/05/23 08:12:58;;;;;;;5.85;2.30;;;614.50;1715.20;;;;;;5052271;28;20017;-70
2021/05/23 08:15:24;;;;;;;7.65;2.63;;;614.50;1715.20;;;;;;5049186;28;20515;-69
2021/05/23 08:17:53;;;;;;;7.60;2.80;;;614.40;1689.60;;;;;;5052130;28;20099;-70
2021/05/23 08:20:20;;;;;;;5.45;1.90;;;589.70;1689.60;;;;;;5050418;28;20079;-69
2021/05/23 08:22:46;;;;;;;4.88;2.03;;;614.40;1638.40;;;;;;5041411;28;20079;-70
2021/05/23 08:25:12;;;;;;;7.15;2.28;;;614.50;1638.40;;;;;;5052015;28;20025;-70
2021/05/23 08:27:38;;;;;;;8.25;3.28;;;614.60;1689.60;;;;;;5052373;28;20029;-69
2021/05/23 08:30:05;;;;;;;4.28;2.15;;;614.80;1715.20;;;;;;5052359;28;20029;-75
2021/05/23 08:32:31;;;;;;;6.47;2.40;;;615.00;1612.80;;;;;;5051955;28;20391;-71
2021/05/23 08:34:57;;;;;;;4.43;1.90;;;615.00;1612.80;;;;;;5052206;28;20021;-76
2021/05/23 08:37:22;;;;;;;6.53;2.47;;;614.80;1561.60;;;;;;5051878;28;20083;-74
2021/05/23 08:39:48;;;;;;;5.60;2.30;;;614.90;1536.00;;;;;;5052224;28;20033;-68
2021/05/23 08:42:14;;;;;;;5.22;2.15;;;614.80;1536.00;;;;;;5052013;28;20039;-68
2021/05/23 08:44:41;;;;;;;4.20;1.80;;;614.80;1510.40;;;;;;5051994;28;20106;-69
2021/05/23 08:47:07;;;;;;;7.45;2.58;;;615.10;1536.00;;;;;;5052173;28;20029;-70
2021/05/23 08:49:33;;;;;;;5.82;1.85;;;615.20;1484.80;;;;;;5052169;28;20036;-71
2021/05/23 08:51:58;;;;;;;4.85;1.90;;;615.10;1484.80;;;;;;5052191;28;20049;-70
2021/05/23 08:54:24;;;;;;;4.93;1.70;;;615.00;1484.80;;;;;;5051989;28;20040;-70
2021/05/23 08:56:52;;;;;;;5.10;1.80;;;615.10;1484.80;;;;;;5051415;28;20090;-70
2021/05/23 08:59:18;;;;;;;4.43;1.80;;;615.20;1484.80;;;;;;5051388;28;20045;-69
2021/05/23 09:01:45;;;;;;;6.03;1.88;;;615.20;1459.20;;;;;;5051545;28;20473;-73
2021/05/23 09:04:19;;;;;;;6.90;1.98;;;640.10;1484.80;;;;;;5051095;28;20027;-69
2021/05/23 09:06:45;;;;;;;5.53;2.45;;;615.30;1484.80;;;;;;5046660;28;20057;-69
2021/05/23 09:09:15;;;;;;;5.45;2.80;;;640.10;1459.20;;;;;;5051391;28;20365;-69
2021/05/23 09:11:52;;;;;;;3.78;1.77;;;640.30;1484.80;;;;;;5051252;28;20022;-69
2021/05/23 09:14:35;;;;;;;5.85;2.20;;;640.60;1484.80;;;;;;5051233;28;20027;-70
2021/05/23 09:17:01;;;;;;;6.72;2.10;;;640.40;1433.60;;;;;;5049357;28;20048;-73
2021/05/23 09:19:27;;;;;;;6.15;2.00;;;640.90;1433.60;;;;;;5050921;28;20442;-78
2021/05/23 09:21:54;;;;;;;4.95;1.70;;;640.60;1433.60;;;;;;5047634;28;20049;-68
2021/05/23 09:24:20;;;;;;;7.45;2.00;;;640.90;1433.60;;;;;;5036139;28;20068;-68
2021/05/23 09:26:50;;;;;;;4.78;1.85;;;640.90;1433.60;;;;;;5041278;28;20036;-73
2021/05/23 09:29:21;;;;;;;5.22;2.00;;;665.60;1459.20;;;;;;5044767;28;20031;-72
2021/05/23 09:32:03;;;;;;;4.07;2.10;;;665.60;1459.20;;;;;;5047170;28;20033;-70
2021/05/23 09:34:31;;;;;;;5.78;1.95;;;640.90;1459.20;;;;;;5051475;28;20024;-69
2021/05/23 09:36:57;;;;;;;5.15;2.33;;;640.90;1433.60;;;;;;5034355;28;20391;-74
2021/05/23 09:39:34;;;;;;;5.45;2.00;;;665.60;1459.20;;;;;;5054751;28;20021;-69
2021/05/23 09:42:05;;;;;;;5.38;1.80;;;665.80;1433.60;;;;;;5055024;28;20024;-68
2021/05/23 09:44:30;;;;;;;4.28;1.90;;;665.90;1408.00;;;;;;5052218;28;20017;-72
2021/05/23 09:47:04;;;;;;;4.57;1.77;;;666.10;1433.60;;;;;;5052064;28;20032;-74
2021/05/23 09:49:40;;;;;;;4.38;1.90;;;666.20;1459.20;;;;;;5055028;28;20017;-68
2021/05/23 09:52:17;;;;;;;4.95;2.10;;;666.40;1433.60;;;;;;5054924;28;20049;-69
2021/05/23 09:54:46;;;;;;;5.50;2.00;;;666.40;1459.20;;;;;;5055115;28;20029;-69
2021/05/23 09:57:21;;;;;;;5.30;2.42;;;691.20;1484.80;;;;;;5055165;28;20033;-71
2021/05/23 09:59:57;;;;;;;5.32;1.90;;;691.20;1459.20;;;;;;5054997;28;20031;-70
2021/05/23 10:02:23;;;;;;;6.07;1.80;;;691.20;1433.60;;;;;;5053370;28;20032;-74
2021/05/23 10:04:48;;;;;;;5.43;1.60;;;666.50;1356.80;;;;;;5054829;28;20480;-68
2021/05/23 10:07:14;;;;;;;4.78;2.03;;;666.30;1356.80;;;;;;5054886;28;20079;-69
2021/05/23 10:09:40;;;;;;;4.05;1.77;;;666.30;1408.00;;;;;;5055248;28;20033;-69
2021/05/23 10:12:10;;;;;;;5.32;2.13;;;691.20;1433.60;;;;;;5055925;28;20021;-71
2021/05/23 10:14:37;;;;;;;4.68;1.73;;;691.40;1356.80;;;;;;5054134;28;20052;-72
2021/05/23 10:17:06;;;;;;;3.55;1.55;;;691.60;1382.40;;;;;;5052523;28;20021;-70
2021/05/23 10:19:34;;;;;;;3.70;1.70;;;691.60;1382.40;;;;;;5045398;28;20526;-72
2021/05/23 10:22:02;;;;;;;3.78;1.90;;;691.70;1382.40;;;;;;5026925;28;20087;-75
2021/05/23 10:24:37;;;;;;;4.55;1.98;;;691.50;1408.00;;;;;;5054458;28;20098;-70
2021/05/23 10:27:16;;;;;;;5.15;1.80;;;691.70;1356.80;;;;;;5054536;28;20029;-71
2021/05/23 10:29:47;;;;;;;6.00;1.98;;;691.80;1408.00;;;;;;5054718;28;20513;-69
2021/05/23 10:32:17;;;;;;;4.60;1.80;;;691.90;1408.00;;;;;;5054310;28;20108;-69
2021/05/23 10:34:46;;;;;;;4.10;1.75;;;692.00;1382.40;;;;;;5054495;28;20074;-68
2021/05/23 10:37:17;;;;;;;4.30;2.00;;;691.80;1356.80;;;;;;5054200;28;20482;-69
2021/05/23 10:39:52;;;;;;;4.28;2.00;;;691.70;1356.80;;;;;;5054731;28;20028;-70
2021/05/23 10:42:23;;;;;;;3.75;1.80;;;691.70;1331.20;;;;;;5054166;28;20056;-70
2021/05/23 10:44:51;;;;;;;4.53;1.77;;;692.10;1356.80;;;;;;5051188;28;20035;-71
2021/05/23 10:47:20;;;;;;;5.25;1.92;;;692.10;1331.20;;;;;;5053607;28;20344;-70
2021/05/23 10:49:54;;;;;;;4.15;1.90;;;716.80;1356.80;;;;;;5037721;28;20040;-70
2021/05/23 10:52:23;;;;;;;4.95;1.90;;;716.90;1356.80;;;;;;5036081;28;20096;-74
2021/05/23 10:55:14;;;;;;;3.88;1.83;;;716.80;1356.80;;;;;;5051078;28;20495;-70
2021/05/23 10:57:44;;;;;;;3.38;1.70;;;716.80;1356.80;;;;;;5035495;28;20091;-74
2021/05/23 11:00:39;;;;;;;3.13;2.00;;;717.00;1356.80;;;;;;5051278;28;20079;-70
2021/05/23 11:03:12;;;;;;;7.95;2.60;;;716.90;1356.80;;;;;;5045104;28;20036;-70
2021/05/23 11:05:38;;;;;;;4.28;2.35;;;716.80;1356.80;;;;;;5053356;28;20025;-70
2021/05/23 11:08:07;;;;;;;6.38;2.10;;;716.90;1356.80;;;;;;5053421;28;20020;-70
2021/05/23 11:10:41;;;;;;;5.28;1.80;;;717.10;1356.80;;;;;;5051185;28;20702;-69
2021/05/23 11:13:29;;;;;;;4.25;1.80;;;717.00;1331.20;;;;;;5048579;28;20100;-69
2021/05/23 11:15:58;;;;;;;3.05;1.80;;;717.10;1305.60;;;;;;5044559;28;20400;-70
2021/05/23 11:18:26;;;;;;;8.48;1.88;;;717.10;1331.20;;;;;;5053484;28;20056;-69
2021/05/23 11:21:15;;;;;;;4.22;1.60;;;717.20;1356.80;;;;;;5053782;28;20024;-69
2021/05/23 11:23:53;;;;;;;5.10;2.58;;;717.20;1305.60;;;;;;5052585;28;20491;-72
2021/05/23 11:26:19;;;;;;;4.78;2.20;;;717.40;1280.00;;;;;;5053501;28;20048;-69
2021/05/23 11:28:59;;;;;;;3.65;1.80;;;717.40;1305.60;;;;;;5052042;28;20029;-69
2021/05/23 11:31:36;;;;;;;5.10;1.63;;;717.70;1305.60;;;;;;5037642;28;20039;-69
2021/05/23 11:34:03;;;;;;;4.03;1.90;;;717.40;1280.00;;;;;;5035891;28;20075;-69
2021/05/23 11:36:33;;;;;;;6.72;1.90;;;717.20;1305.60;;;;;;5035768;28;20041;-73
2021/05/23 11:39:02;;;;;;;4.07;1.90;;;717.20;1305.60;;;;;;5034980;28;20032;-73
2021/05/23 11:41:38;;;;;;;3.53;1.70;;;717.50;1356.80;;;;;;5053187;28;20036;-72
2021/05/23 11:44:06;;;;;;;6.15;1.92;;;717.50;1305.60;;;;;;5052446;28;20021;-72
2021/05/23 11:46:32;;;;;;;4.68;2.00;;;717.70;1331.20;;;;;;5036583;28;20392;-68
2021/05/23 11:48:59;;;;;;;5.63;2.10;;;717.70;1331.20;;;;;;5034140;28;20013;-74
2021/05/23 11:51:29;;;;;;;3.45;1.80;;;717.60;1331.20;;;;;;5035344;28;20036;-69
2021/05/23 11:53:57;;;;;;;6.75;2.22;;;717.70;1331.20;;;;;;5033344;28;20029;-77
2021/05/23 11:56:25;;;;;;;4.75;2.22;;;742.40;1356.80;;;;;;5034064;28;20079;-70
2021/05/23 11:58:56;;;;;;;4.07;1.80;;;742.40;1382.40;;;;;;5035054;28;20055;-69
2021/05/23 12:01:28;;;;;;;5.60;2.30;;;742.40;1356.80;;;;;;5034817;28;20053;-69
2021/05/23 12:03:54;;;;;;;3.92;1.90;;;742.40;1382.40;;;;;;5033487;28;20502;-69
2021/05/23 12:06:20;;;;;;;3.22;1.90;;;742.50;1356.80;;;;;;5033562;28;20043;-70
2021/05/23 12:08:46;;;;;;;4.25;1.92;;;742.40;1331.20;;;;;;5033766;28;20022;-69
2021/05/23 12:11:12;;;;;;;4.93;2.00;;;742.50;1331.20;;;;;;5033524;28;20029;-73
2021/05/23 12:13:47;;;;;;;4.10;1.80;;;742.60;1280.00;;;;;;5034871;28;20018;-69
2021/05/23 12:16:16;;;;;;;3.85;2.10;;;742.50;1305.60;;;;;;5034258;28;20022;-70
2021/05/23 12:18:51;;;;;;;4.22;1.88;;;742.80;1331.20;;;;;;5036674;28;20070;-72
2021/05/23 12:21:24;;;;;;;4.80;1.90;;;742.80;1331.20;;;;;;5033788;28;20108;-74